George S. — A8TJ9 — position and weather

sailwx.info

Track history (hours):
 
Tides and Currents Weather Stations Pressure Air Temp Water Temp Dewpoint Dewpoint Depression Visibility Wind Speed Wind Dir Waves Ship Positions

George S.

Last reported at 2017-Nov-11 06:00 UTC. Time now 2017-Nov-23 00:21 UTC.
Position N 25°55' W 079°26'.
Warning: this ship's position is 11 days out of date.

Length 274 m; draft 16.4 m.

Type: Tanker. MMSI: 636014372.

Date/timePositionNaut miles runAvg speedWind from/ knotsBaromVisibWave heightAir tempDewpointWater temp
2017-Nov-11 06:00N 25°55' W 079°26'4 9.0
2017-Nov-11 05:30N 25°50' W 079°27'5 9.2
2017-Nov-11 05:00N 25°46' W 079°29'5 9.5
2017-Nov-11 04:30N 25°41' W 079°30'510.2
2017-Nov-11 04:00N 25°36' W 079°31'2710.6
2017-Nov-11 01:26N 25°09' W 079°32'511.5
2017-Nov-11 01:00N 25°04' W 079°32'611.5
2017-Nov-11 00:29N 24°58' W 079°32'511.3
2017-Nov-11 00:00N 24°53' W 079°32'611.1
2017-Nov-10 23:30N 24°47' W 079°32'510.2
2017-Nov-10 22:59N 24°42' W 079°33'510.7
2017-Nov-10 22:29N 24°39' W 079°38'  
Track history (hours):
 
Tides and Currents Weather Stations Pressure Air Temp Water Temp Dewpoint Dewpoint Depression Visibility Wind Speed Wind Dir Waves Ship Positions

George S.

Last reported at 2017-Nov-11 06:00 UTC. Time now 2017-Nov-23 00:21 UTC.
Position N 25°55' W 079°26'.
Warning: this ship's position is 11 days out of date.

Length 274 m; draft 16.4 m.

Type: Tanker. MMSI: 636014372.

Date/timePositionNaut miles runAvg speedWind from/ knotsBaromVisibWave heightAir tempDewpointWater temp
2017-Nov-11 06:00N 25°55' W 079°26'4 9.0
2017-Nov-11 05:30N 25°50' W 079°27'5 9.2
2017-Nov-11 05:00N 25°46' W 079°29'5 9.5
2017-Nov-11 04:30N 25°41' W 079°30'510.2
2017-Nov-11 04:00N 25°36' W 079°31'2710.6
2017-Nov-11 01:26N 25°09' W 079°32'511.5
2017-Nov-11 01:00N 25°04' W 079°32'611.5
2017-Nov-11 00:29N 24°58' W 079°32'511.3
2017-Nov-11 00:00N 24°53' W 079°32'611.1
2017-Nov-10 23:30N 24°47' W 079°32'510.2
2017-Nov-10 22:59N 24°42' W 079°33'510.7
2017-Nov-10 22:29N 24°39' W 079°38'  

Dump ship's entire track history